sensor_id;sensor_type;location;lat;lon;timestamp;temperature;humidity
53782;DHT22;39692;53.114;7.060;2022-07-23T00:00:10;15.70;99.90
53782;DHT22;39692;53.114;7.060;2022-07-23T00:02:35;15.70;99.90
53782;DHT22;39692;53.114;7.060;2022-07-23T00:05:01;15.80;99.90
53782;DHT22;39692;53.114;7.060;2022-07-23T00:07:27;15.80;99.90
53782;DHT22;39692;53.114;7.060;2022-07-23T00:09:52;15.70;99.90
53782;DHT22;39692;53.114;7.060;2022-07-23T00:12:18;15.70;99.90
53782;DHT22;39692;53.114;7.060;2022-07-23T00:14:44;15.60;99.90
53782;DHT22;39692;53.114;7.060;2022-07-23T00:17:10;15.60;99.90
53782;DHT22;39692;53.114;7.060;2022-07-23T00:19:35;15.60;99.90
53782;DHT22;39692;53.114;7.060;2022-07-23T00:22:01;15.50;99.90
53782;DHT22;39692;53.114;7.060;2022-07-23T00:24:27;15.50;99.90
53782;DHT22;39692;53.114;7.060;2022-07-23T00:26:52;15.50;99.90
53782;DHT22;39692;53.114;7.060;2022-07-23T00:29:18;15.50;99.90
53782;DHT22;39692;53.114;7.060;2022-07-23T00:31:44;15.40;99.90
53782;DHT22;39692;53.114;7.060;2022-07-23T00:34:09;15.40;99.90
53782;DHT22;39692;53.114;7.060;2022-07-23T00:36:35;15.40;99.90
53782;DHT22;39692;53.114;7.060;2022-07-23T00:39:01;15.40;99.90
53782;DHT22;39692;53.114;7.060;2022-07-23T00:41:26;15.40;99.90
53782;DHT22;39692;53.114;7.060;2022-07-23T00:43:52;15.40;99.90
53782;DHT22;39692;53.114;7.060;2022-07-23T00:46:24;15.30;99.90
53782;DHT22;39692;53.114;7.060;2022-07-23T00:48:50;15.30;99.90
53782;DHT22;39692;53.114;7.060;2022-07-23T00:51:16;15.30;99.90
53782;DHT22;39692;53.114;7.060;2022-07-23T00:53:43;15.20;99.90
53782;DHT22;39692;53.114;7.060;2022-07-23T00:56:08;15.20;99.90
53782;DHT22;39692;53.114;7.060;2022-07-23T00:58:35;15.20;99.90
53782;DHT22;39692;53.114;7.060;2022-07-23T01:01:01;15.10;99.90
53782;DHT22;39692;53.114;7.060;2022-07-23T01:03:27;15.10;99.90
53782;DHT22;39692;53.114;7.060;2022-07-23T01:05:53;15.10;99.90
53782;DHT22;39692;53.114;7.060;2022-07-23T01:08:19;15.10;99.90
53782;DHT22;39692;53.114;7.060;2022-07-23T01:10:47;15.00;99.90
53782;DHT22;39692;53.114;7.060;2022-07-23T01:13:13;15.00;99.90
53782;DHT22;39692;53.114;7.060;2022-07-23T01:15:39;15.00;99.90
53782;DHT22;39692;53.114;7.060;2022-07-23T01:18:06;15.00;99.90
53782;DHT22;39692;53.114;7.060;2022-07-23T01:20:32;14.90;99.90
53782;DHT22;39692;53.114;7.060;2022-07-23T01:22:58;14.90;99.90
53782;DHT22;39692;53.114;7.060;2022-07-23T01:25:24;14.80;99.90
53782;DHT22;39692;53.114;7.060;2022-07-23T01:27:52;14.80;99.90
53782;DHT22;39692;53.114;7.060;2022-07-23T01:30:19;14.80;99.90
53782;DHT22;39692;53.114;7.060;2022-07-23T01:32:44;14.80;99.90
53782;DHT22;39692;53.114;7.060;2022-07-23T01:35:10;14.80;99.90
53782;DHT22;39692;53.114;7.060;2022-07-23T01:37:37;14.80;99.90
53782;DHT22;39692;53.114;7.060;2022-07-23T01:40:03;14.80;99.90
53782;DHT22;39692;53.114;7.060;2022-07-23T01:42:29;14.80;99.90
53782;DHT22;39692;53.114;7.060;2022-07-23T01:44:55;14.80;99.90
53782;DHT22;39692;53.114;7.060;2022-07-23T01:47:21;14.80;99.90
53782;DHT22;39692;53.114;7.060;2022-07-23T01:49:47;14.90;99.90
53782;DHT22;39692;53.114;7.060;2022-07-23T01:52:13;14.80;99.90
53782;DHT22;39692;53.114;7.060;2022-07-23T01:54:39;14.90;99.90
53782;DHT22;39692;53.114;7.060;2022-07-23T01:57:05;14.90;99.90
53782;DHT22;39692;53.114;7.060;2022-07-23T01:59:31;14.90;99.90
53782;DHT22;39692;53.114;7.060;2022-07-23T02:01:57;14.90;99.90
53782;DHT22;39692;53.114;7.060;2022-07-23T02:04:24;14.80;99.90
53782;DHT22;39692;53.114;7.060;2022-07-23T02:06:50;14.80;99.90
53782;DHT22;39692;53.114;7.060;2022-07-23T02:09:16;14.70;99.90
53782;DHT22;39692;53.114;7.060;2022-07-23T02:11:42;14.70;99.90
53782;DHT22;39692;53.114;7.060;2022-07-23T02:14:08;14.60;99.90
53782;DHT22;39692;53.114;7.060;2022-07-23T02:16:33;14.60;99.90
53782;DHT22;39692;53.114;7.060;2022-07-23T02:18:59;14.50;99.90
53782;DHT22;39692;53.114;7.060;2022-07-23T02:21:25;14.40;99.90
53782;DHT22;39692;53.114;7.060;2022-07-23T02:23:50;14.30;99.90
53782;DHT22;39692;53.114;7.060;2022-07-23T02:26:16;14.10;99.90
53782;DHT22;39692;53.114;7.060;2022-07-23T02:28:42;14.10;99.90
53782;DHT22;39692;53.114;7.060;2022-07-23T02:31:08;14.00;99.90
53782;DHT22;39692;53.114;7.060;2022-07-23T02:33:34;14.10;99.90
53782;DHT22;39692;53.114;7.060;2022-07-23T02:35:59;14.10;99.90
53782;DHT22;39692;53.114;7.060;2022-07-23T02:38:25;14.00;99.90
53782;DHT22;39692;53.114;7.060;2022-07-23T02:40:51;14.00;99.90
53782;DHT22;39692;53.114;7.060;2022-07-23T02:43:17;14.00;99.90
53782;DHT22;39692;53.114;7.060;2022-07-23T02:45:42;13.90;99.90
53782;DHT22;39692;53.114;7.060;2022-07-23T02:48:08;13.80;99.90
53782;DHT22;39692;53.114;7.060;2022-07-23T02:50:34;13.70;99.90
53782;DHT22;39692;53.114;7.060;2022-07-23T02:53:00;13.70;99.90
53782;DHT22;39692;53.114;7.060;2022-07-23T02:55:26;13.70;99.90
53782;DHT22;39692;53.114;7.060;2022-07-23T02:57:52;13.70;99.90
53782;DHT22;39692;53.114;7.060;2022-07-23T03:00:17;13.70;99.90
53782;DHT22;39692;53.114;7.060;2022-07-23T03:02:44;13.70;99.90
53782;DHT22;39692;53.114;7.060;2022-07-23T03:05:10;13.60;99.90
53782;DHT22;39692;53.114;7.060;2022-07-23T03:07:35;13.70;99.90
53782;DHT22;39692;53.114;7.060;2022-07-23T03:10:02;13.70;99.90
53782;DHT22;39692;53.114;7.060;2022-07-23T03:12:28;13.70;99.90
53782;DHT22;39692;53.114;7.060;2022-07-23T03:14:53;13.60;99.90
53782;DHT22;39692;53.114;7.060;2022-07-23T03:17:19;13.60;99.90
53782;DHT22;39692;53.114;7.060;2022-07-23T03:19:45;13.60;99.90
53782;DHT22;39692;53.114;7.060;2022-07-23T03:22:10;13.60;99.90
53782;DHT22;39692;53.114;7.060;2022-07-23T03:24:36;13.60;99.90
53782;DHT22;39692;53.114;7.060;2022-07-23T03:27:21;13.50;99.90
53782;DHT22;39692;53.114;7.060;2022-07-23T03:29:47;13.50;99.90
53782;DHT22;39692;53.114;7.060;2022-07-23T03:32:12;13.40;99.90
53782;DHT22;39692;53.114;7.060;2022-07-23T03:34:38;13.40;99.90
53782;DHT22;39692;53.114;7.060;2022-07-23T03:37:04;13.30;99.90
53782;DHT22;39692;53.114;7.060;2022-07-23T03:39:30;13.30;99.90
53782;DHT22;39692;53.114;7.060;2022-07-23T03:41:56;13.20;99.90
53782;DHT22;39692;53.114;7.060;2022-07-23T03:44:21;13.20;99.90
53782;DHT22;39692;53.114;7.060;2022-07-23T03:46:47;13.20;99.90
53782;DHT22;39692;53.114;7.060;2022-07-23T03:49:13;13.30;99.90
53782;DHT22;39692;53.114;7.060;2022-07-23T03:51:38;13.30;99.90
53782;DHT22;39692;53.114;7.060;2022-07-23T03:54:04;13.40;99.90
53782;DHT22;39692;53.114;7.060;2022-07-23T03:56:30;13.40;99.90
53782;DHT22;39692;53.114;7.060;2022-07-23T03:58:56;13.40;99.90
53782;DHT22;39692;53.114;7.060;2022-07-23T04:01:21;13.40;99.90
53782;DHT22;39692;53.114;7.060;2022-07-23T04:03:47;13.40;99.90
53782;DHT22;39692;53.114;7.060;2022-07-23T04:06:13;13.40;99.90
53782;DHT22;39692;53.114;7.060;2022-07-23T04:08:38;13.30;99.90
53782;DHT22;39692;53.114;7.060;2022-07-23T04:11:04;13.30;99.90
53782;DHT22;39692;53.114;7.060;2022-07-23T04:13:30;13.30;99.90
53782;DHT22;39692;53.114;7.060;2022-07-23T04:15:58;13.20;99.90
53782;DHT22;39692;53.114;7.060;2022-07-23T04:18:23;13.20;99.90
53782;DHT22;39692;53.114;7.060;2022-07-23T04:20:51;13.20;99.90
53782;DHT22;39692;53.114;7.060;2022-07-23T04:23:17;13.10;99.90
53782;DHT22;39692;53.114;7.060;2022-07-23T04:25:43;13.00;99.90
53782;DHT22;39692;53.114;7.060;2022-07-23T04:28:09;13.00;99.90
53782;DHT22;39692;53.114;7.060;2022-07-23T04:30:35;13.00;99.90
53782;DHT22;39692;53.114;7.060;2022-07-23T04:33:00;13.00;99.90
53782;DHT22;39692;53.114;7.060;2022-07-23T04:35:26;13.00;99.90
53782;DHT22;39692;53.114;7.060;2022-07-23T04:37:52;13.10;99.90
53782;DHT22;39692;53.114;7.060;2022-07-23T04:40:18;13.10;99.90
53782;DHT22;39692;53.114;7.060;2022-07-23T04:42:43;13.20;99.90
53782;DHT22;39692;53.114;7.060;2022-07-23T04:45:09;13.40;99.90
53782;DHT22;39692;53.114;7.060;2022-07-23T04:47:35;13.50;99.90
53782;DHT22;39692;53.114;7.060;2022-07-23T04:50:01;13.60;99.90
53782;DHT22;39692;53.114;7.060;2022-07-23T04:52:26;13.80;99.90
53782;DHT22;39692;53.114;7.060;2022-07-23T04:54:52;14.00;99.90
53782;DHT22;39692;53.114;7.060;2022-07-23T04:57:18;14.20;99.90
53782;DHT22;39692;53.114;7.060;2022-07-23T04:59:43;14.30;99.90
53782;DHT22;39692;53.114;7.060;2022-07-23T05:02:09;14.40;99.90
53782;DHT22;39692;53.114;7.060;2022-07-23T05:04:35;14.40;99.90
53782;DHT22;39692;53.114;7.060;2022-07-23T05:07:00;14.50;99.90
53782;DHT22;39692;53.114;7.060;2022-07-23T05:09:26;14.50;99.90
53782;DHT22;39692;53.114;7.060;2022-07-23T05:11:52;14.60;99.90
53782;DHT22;39692;53.114;7.060;2022-07-23T05:14:17;14.70;99.90
53782;DHT22;39692;53.114;7.060;2022-07-23T05:16:43;14.90;99.90
53782;DHT22;39692;53.114;7.060;2022-07-23T05:19:09;15.10;99.90
53782;DHT22;39692;53.114;7.060;2022-07-23T05:21:34;15.20;99.90
53782;DHT22;39692;53.114;7.060;2022-07-23T05:24:00;15.40;99.90
53782;DHT22;39692;53.114;7.060;2022-07-23T05:26:26;15.50;99.90
53782;DHT22;39692;53.114;7.060;2022-07-23T05:28:52;15.60;99.90
53782;DHT22;39692;53.114;7.060;2022-07-23T05:31:18;15.70;99.90
53782;DHT22;39692;53.114;7.060;2022-07-23T05:33:43;15.70;99.90
53782;DHT22;39692;53.114;7.060;2022-07-23T05:36:10;15.80;99.90
53782;DHT22;39692;53.114;7.060;2022-07-23T05:38:36;15.80;99.90
53782;DHT22;39692;53.114;7.060;2022-07-23T05:41:01;15.90;99.90
53782;DHT22;39692;53.114;7.060;2022-07-23T05:43:27;16.00;99.90
53782;DHT22;39692;53.114;7.060;2022-07-23T05:45:53;16.10;99.90
53782;DHT22;39692;53.114;7.060;2022-07-23T05:50:46;16.30;99.90
53782;DHT22;39692;53.114;7.060;2022-07-23T05:53:12;16.50;99.90
53782;DHT22;39692;53.114;7.060;2022-07-23T05:55:38;16.60;99.90
53782;DHT22;39692;53.114;7.060;2022-07-23T05:58:04;15.50;99.90
53782;DHT22;39692;53.114;7.060;2022-07-23T06:00:30;16.70;99.90
53782;DHT22;39692;53.114;7.060;2022-07-23T06:02:56;16.80;99.90
53782;DHT22;39692;53.114;7.060;2022-07-23T06:05:22;16.80;99.90
53782;DHT22;39692;53.114;7.060;2022-07-23T06:07:48;16.90;99.90
53782;DHT22;39692;53.114;7.060;2022-07-23T06:10:14;17.00;99.90
53782;DHT22;39692;53.114;7.060;2022-07-23T06:12:39;17.00;99.90
53782;DHT22;39692;53.114;7.060;2022-07-23T06:15:05;17.10;99.90
53782;DHT22;39692;53.114;7.060;2022-07-23T06:17:31;17.20;99.90
53782;DHT22;39692;53.114;7.060;2022-07-23T06:19:57;16.80;99.90
53782;DHT22;39692;53.114;7.060;2022-07-23T06:22:22;17.30;99.90
53782;DHT22;39692;53.114;7.060;2022-07-23T06:27:16;17.50;99.90
53782;DHT22;39692;53.114;7.060;2022-07-23T06:29:41;17.60;99.90
53782;DHT22;39692;53.114;7.060;2022-07-23T06:32:07;17.70;99.90
53782;DHT22;39692;53.114;7.060;2022-07-23T06:34:33;17.90;99.90
53782;DHT22;39692;53.114;7.060;2022-07-23T06:36:59;18.00;99.90
53782;DHT22;39692;53.114;7.060;2022-07-23T06:39:25;18.20;99.90
53782;DHT22;39692;53.114;7.060;2022-07-23T06:41:51;18.20;99.90
53782;DHT22;39692;53.114;7.060;2022-07-23T06:44:18;18.20;99.90
53782;DHT22;39692;53.114;7.060;2022-07-23T06:46:43;18.30;99.90
53782;DHT22;39692;53.114;7.060;2022-07-23T06:49:09;18.40;99.90
53782;DHT22;39692;53.114;7.060;2022-07-23T06:51:35;18.40;99.90
53782;DHT22;39692;53.114;7.060;2022-07-23T06:54:02;18.40;99.90
53782;DHT22;39692;53.114;7.060;2022-07-23T06:56:28;18.50;99.90
53782;DHT22;39692;53.114;7.060;2022-07-23T06:58:53;18.70;99.90
53782;DHT22;39692;53.114;7.060;2022-07-23T07:01:19;19.00;99.90
53782;DHT22;39692;53.114;7.060;2022-07-23T07:03:45;19.20;99.90
53782;DHT22;39692;53.114;7.060;2022-07-23T07:06:10;19.60;99.90
53782;DHT22;39692;53.114;7.060;2022-07-23T07:08:36;19.90;99.90
53782;DHT22;39692;53.114;7.060;2022-07-23T07:11:02;20.20;99.90
53782;DHT22;39692;53.114;7.060;2022-07-23T07:13:28;20.30;99.90
53782;DHT22;39692;53.114;7.060;2022-07-23T07:15:54;20.20;99.90
53782;DHT22;39692;53.114;7.060;2022-07-23T07:18:19;19.70;99.90
53782;DHT22;39692;53.114;7.060;2022-07-23T07:20:45;19.50;99.90
53782;DHT22;39692;53.114;7.060;2022-07-23T07:23:12;19.20;99.90
53782;DHT22;39692;53.114;7.060;2022-07-23T07:25:38;19.20;99.90
53782;DHT22;39692;53.114;7.060;2022-07-23T07:28:04;19.20;99.90
53782;DHT22;39692;53.114;7.060;2022-07-23T07:30:29;19.20;99.90
53782;DHT22;39692;53.114;7.060;2022-07-23T07:32:55;19.20;99.90
53782;DHT22;39692;53.114;7.060;2022-07-23T07:35:21;19.30;99.90
53782;DHT22;39692;53.114;7.060;2022-07-23T07:37:46;19.50;99.90
53782;DHT22;39692;53.114;7.060;2022-07-23T07:40:12;19.50;99.90
53782;DHT22;39692;53.114;7.060;2022-07-23T07:42:48;19.60;99.90
53782;DHT22;39692;53.114;7.060;2022-07-23T07:45:14;19.70;99.90
53782;DHT22;39692;53.114;7.060;2022-07-23T07:47:40;19.80;99.90
53782;DHT22;39692;53.114;7.060;2022-07-23T07:50:07;20.00;99.90
53782;DHT22;39692;53.114;7.060;2022-07-23T07:52:34;20.00;99.90
53782;DHT22;39692;53.114;7.060;2022-07-23T07:55:03;20.10;99.90
53782;DHT22;39692;53.114;7.060;2022-07-23T07:57:29;20.20;99.90
53782;DHT22;39692;53.114;7.060;2022-07-23T07:59:55;20.30;99.90
53782;DHT22;39692;53.114;7.060;2022-07-23T08:02:21;20.80;99.90
53782;DHT22;39692;53.114;7.060;2022-07-23T08:04:46;21.30;99.90
53782;DHT22;39692;53.114;7.060;2022-07-23T08:07:12;21.50;99.90
53782;DHT22;39692;53.114;7.060;2022-07-23T08:09:38;21.70;99.90
53782;DHT22;39692;53.114;7.060;2022-07-23T08:12:04;22.10;99.90
53782;DHT22;39692;53.114;7.060;2022-07-23T08:14:30;22.50;99.90
53782;DHT22;39692;53.114;7.060;2022-07-23T08:16:55;22.70;96.00
53782;DHT22;39692;53.114;7.060;2022-07-23T08:19:21;22.70;94.10
53782;DHT22;39692;53.114;7.060;2022-07-23T08:21:47;22.70;91.80
53782;DHT22;39692;53.114;7.060;2022-07-23T08:24:12;22.80;89.80
53782;DHT22;39692;53.114;7.060;2022-07-23T08:26:38;23.20;88.00
53782;DHT22;39692;53.114;7.060;2022-07-23T08:29:04;23.80;85.20
53782;DHT22;39692;53.114;7.060;2022-07-23T08:31:29;25.50;79.50
53782;DHT22;39692;53.114;7.060;2022-07-23T08:36:22;28.70;65.60
53782;DHT22;39692;53.114;7.060;2022-07-23T08:38:48;28.90;62.00
53782;DHT22;39692;53.114;7.060;2022-07-23T08:41:14;28.00;60.70
53782;DHT22;39692;53.114;7.060;2022-07-23T08:43:42;27.70;61.20
53782;DHT22;39692;53.114;7.060;2022-07-23T08:46:08;28.70;61.00
53782;DHT22;39692;53.114;7.060;2022-07-23T18:52:04;20.10;99.90
53782;DHT22;39692;53.114;7.060;2022-07-23T18:54:29;20.00;99.90
53782;DHT22;39692;53.114;7.060;2022-07-23T18:56:55;19.70;99.90
53782;DHT22;39692;53.114;7.060;2022-07-23T18:59:21;19.70;99.90
53782;DHT22;39692;53.114;7.060;2022-07-23T19:01:47;19.70;99.90
53782;DHT22;39692;53.114;7.060;2022-07-23T19:04:13;19.90;99.90
53782;DHT22;39692;53.114;7.060;2022-07-23T19:06:40;19.50;99.90
53782;DHT22;39692;53.114;7.060;2022-07-23T19:09:06;19.60;99.90
53782;DHT22;39692;53.114;7.060;2022-07-23T19:11:32;19.50;99.90
53782;DHT22;39692;53.114;7.060;2022-07-23T19:13:58;19.50;99.90
53782;DHT22;39692;53.114;7.060;2022-07-23T19:16:24;19.20;99.90
53782;DHT22;39692;53.114;7.060;2022-07-23T19:18:50;19.20;99.90
53782;DHT22;39692;53.114;7.060;2022-07-23T19:21:15;19.10;99.90
53782;DHT22;39692;53.114;7.060;2022-07-23T19:23:41;19.10;99.90
53782;DHT22;39692;53.114;7.060;2022-07-23T19:26:07;19.00;99.90
53782;DHT22;39692;53.114;7.060;2022-07-23T19:28:33;18.80;99.90
53782;DHT22;39692;53.114;7.060;2022-07-23T19:30:58;18.90;99.90
53782;DHT22;39692;53.114;7.060;2022-07-23T19:33:25;18.80;99.90
53782;DHT22;39692;53.114;7.060;2022-07-23T19:35:51;18.60;99.90
53782;DHT22;39692;53.114;7.060;2022-07-23T19:38:17;18.80;99.90
53782;DHT22;39692;53.114;7.060;2022-07-23T19:40:43;18.70;99.90
53782;DHT22;39692;53.114;7.060;2022-07-23T19:43:09;18.50;99.90
53782;DHT22;39692;53.114;7.060;2022-07-23T19:45:36;18.40;99.90
53782;DHT22;39692;53.114;7.060;2022-07-23T19:48:03;18.50;99.90
53782;DHT22;39692;53.114;7.060;2022-07-23T19:50:29;18.60;99.90
53782;DHT22;39692;53.114;7.060;2022-07-23T19:52:55;18.50;99.90
53782;DHT22;39692;53.114;7.060;2022-07-23T19:55:22;18.50;99.90
53782;DHT22;39692;53.114;7.060;2022-07-23T19:57:48;18.40;99.90
53782;DHT22;39692;53.114;7.060;2022-07-23T20:00:14;18.30;99.90
53782;DHT22;39692;53.114;7.060;2022-07-23T20:02:40;18.50;99.90
53782;DHT22;39692;53.114;7.060;2022-07-23T20:05:07;18.40;99.90
53782;DHT22;39692;53.114;7.060;2022-07-23T20:07:34;18.40;99.90
53782;DHT22;39692;53.114;7.060;2022-07-23T20:10:00;18.10;99.90
53782;DHT22;39692;53.114;7.060;2022-07-23T20:12:26;18.10;99.90
53782;DHT22;39692;53.114;7.060;2022-07-23T20:14:52;18.00;99.90
53782;DHT22;39692;53.114;7.060;2022-07-23T20:17:18;17.90;99.90
53782;DHT22;39692;53.114;7.060;2022-07-23T20:19:44;17.90;99.90
53782;DHT22;39692;53.114;7.060;2022-07-23T20:22:09;17.80;99.90
53782;DHT22;39692;53.114;7.060;2022-07-23T20:24:35;17.80;99.90
53782;DHT22;39692;53.114;7.060;2022-07-23T20:27:01;17.70;99.90
53782;DHT22;39692;53.114;7.060;2022-07-23T20:29:27;17.70;99.90
53782;DHT22;39692;53.114;7.060;2022-07-23T20:31:52;17.70;99.90
53782;DHT22;39692;53.114;7.060;2022-07-23T20:34:18;17.60;99.90
53782;DHT22;39692;53.114;7.060;2022-07-23T20:36:45;17.60;99.90
53782;DHT22;39692;53.114;7.060;2022-07-23T20:39:10;17.50;99.90
53782;DHT22;39692;53.114;7.060;2022-07-23T20:41:37;17.40;99.90
53782;DHT22;39692;53.114;7.060;2022-07-23T20:44:05;17.30;99.90
53782;DHT22;39692;53.114;7.060;2022-07-23T20:46:31;17.30;99.90
53782;DHT22;39692;53.114;7.060;2022-07-23T20:48:57;17.20;99.90
53782;DHT22;39692;53.114;7.060;2022-07-23T20:51:23;17.20;99.90
53782;DHT22;39692;53.114;7.060;2022-07-23T20:53:49;17.20;99.90
53782;DHT22;39692;53.114;7.060;2022-07-23T20:56:15;17.20;99.90
53782;DHT22;39692;53.114;7.060;2022-07-23T20:58:41;17.20;99.90
53782;DHT22;39692;53.114;7.060;2022-07-23T21:01:07;17.20;99.90
53782;DHT22;39692;53.114;7.060;2022-07-23T21:03:33;17.20;99.90
53782;DHT22;39692;53.114;7.060;2022-07-23T21:05:58;17.20;99.90
53782;DHT22;39692;53.114;7.060;2022-07-23T21:08:24;17.20;99.90
53782;DHT22;39692;53.114;7.060;2022-07-23T21:10:50;17.20;99.90
53782;DHT22;39692;53.114;7.060;2022-07-23T21:13:16;17.20;99.90
53782;DHT22;39692;53.114;7.060;2022-07-23T21:15:42;17.30;99.90
53782;DHT22;39692;53.114;7.060;2022-07-23T21:18:07;17.30;99.90
53782;DHT22;39692;53.114;7.060;2022-07-23T21:20:34;17.30;99.90
53782;DHT22;39692;53.114;7.060;2022-07-23T21:23:19;17.30;99.90
53782;DHT22;39692;53.114;7.060;2022-07-23T21:25:44;17.30;99.90
53782;DHT22;39692;53.114;7.060;2022-07-23T21:28:10;17.30;99.90
53782;DHT22;39692;53.114;7.060;2022-07-23T21:30:36;17.20;99.90
53782;DHT22;39692;53.114;7.060;2022-07-23T21:33:02;17.20;99.90
53782;DHT22;39692;53.114;7.060;2022-07-23T21:35:27;17.20;99.90
53782;DHT22;39692;53.114;7.060;2022-07-23T21:37:53;17.20;99.90
53782;DHT22;39692;53.114;7.060;2022-07-23T21:40:19;17.20;99.90
53782;DHT22;39692;53.114;7.060;2022-07-23T21:42:45;17.20;99.90
53782;DHT22;39692;53.114;7.060;2022-07-23T21:45:10;17.20;99.90
53782;DHT22;39692;53.114;7.060;2022-07-23T21:47:36;17.20;99.90
53782;DHT22;39692;53.114;7.060;2022-07-23T21:50:02;17.20;99.90
53782;DHT22;39692;53.114;7.060;2022-07-23T21:52:28;17.20;99.90
53782;DHT22;39692;53.114;7.060;2022-07-23T21:54:56;17.20;99.90
53782;DHT22;39692;53.114;7.060;2022-07-23T21:57:22;17.20;99.90
53782;DHT22;39692;53.114;7.060;2022-07-23T21:59:47;17.20;99.90
53782;DHT22;39692;53.114;7.060;2022-07-23T22:02:18;17.20;99.90
53782;DHT22;39692;53.114;7.060;2022-07-23T22:04:44;17.20;99.90
53782;DHT22;39692;53.114;7.060;2022-07-23T22:07:10;17.20;99.90
53782;DHT22;39692;53.114;7.060;2022-07-23T22:09:36;17.20;99.90
53782;DHT22;39692;53.114;7.060;2022-07-23T22:12:03;17.20;99.90
53782;DHT22;39692;53.114;7.060;2022-07-23T22:14:29;17.20;99.90
53782;DHT22;39692;53.114;7.060;2022-07-23T22:16:55;17.20;99.90
53782;DHT22;39692;53.114;7.060;2022-07-23T22:19:20;17.20;99.90
53782;DHT22;39692;53.114;7.060;2022-07-23T22:21:46;17.20;99.90
53782;DHT22;39692;53.114;7.060;2022-07-23T22:24:16;17.10;99.90
53782;DHT22;39692;53.114;7.060;2022-07-23T22:26:43;17.20;99.90
53782;DHT22;39692;53.114;7.060;2022-07-23T22:29:09;17.10;99.90
53782;DHT22;39692;53.114;7.060;2022-07-23T22:31:35;17.10;99.90
53782;DHT22;39692;53.114;7.060;2022-07-23T22:34:01;17.10;99.90
53782;DHT22;39692;53.114;7.060;2022-07-23T22:36:27;17.00;99.90
53782;DHT22;39692;53.114;7.060;2022-07-23T22:38:52;17.00;99.90
53782;DHT22;39692;53.114;7.060;2022-07-23T22:41:18;17.00;99.90
53782;DHT22;39692;53.114;7.060;2022-07-23T22:43:44;17.00;99.90
53782;DHT22;39692;53.114;7.060;2022-07-23T22:46:09;17.00;99.90
53782;DHT22;39692;53.114;7.060;2022-07-23T22:48:35;16.90;99.90
53782;DHT22;39692;53.114;7.060;2022-07-23T22:51:01;17.00;99.90
53782;DHT22;39692;53.114;7.060;2022-07-23T22:53:27;17.00;99.90
53782;DHT22;39692;53.114;7.060;2022-07-23T22:55:53;16.90;99.90
53782;DHT22;39692;53.114;7.060;2022-07-23T22:58:18;16.90;99.90
53782;DHT22;39692;53.114;7.060;2022-07-23T23:00:44;16.80;99.90
53782;DHT22;39692;53.114;7.060;2022-07-23T23:03:09;16.80;99.90
53782;DHT22;39692;53.114;7.060;2022-07-23T23:05:35;16.70;99.90
53782;DHT22;39692;53.114;7.060;2022-07-23T23:08:01;16.70;99.90
53782;DHT22;39692;53.114;7.060;2022-07-23T23:10:28;16.70;99.90
53782;DHT22;39692;53.114;7.060;2022-07-23T23:12:53;16.70;99.90
53782;DHT22;39692;53.114;7.060;2022-07-23T23:15:20;16.70;99.90
53782;DHT22;39692;53.114;7.060;2022-07-23T23:17:45;16.70;99.90
53782;DHT22;39692;53.114;7.060;2022-07-23T23:20:11;16.70;99.90
53782;DHT22;39692;53.114;7.060;2022-07-23T23:22:37;16.60;99.90
53782;DHT22;39692;53.114;7.060;2022-07-23T23:25:04;16.60;99.90
53782;DHT22;39692;53.114;7.060;2022-07-23T23:27:30;16.60;99.90
53782;DHT22;39692;53.114;7.060;2022-07-23T23:29:56;16.60;99.90
53782;DHT22;39692;53.114;7.060;2022-07-23T23:32:22;16.60;99.90
53782;DHT22;39692;53.114;7.060;2022-07-23T23:34:47;16.50;99.90
53782;DHT22;39692;53.114;7.060;2022-07-23T23:37:13;16.50;99.90
53782;DHT22;39692;53.114;7.060;2022-07-23T23:39:39;16.50;99.90
53782;DHT22;39692;53.114;7.060;2022-07-23T23:42:05;16.50;99.90
53782;DHT22;39692;53.114;7.060;2022-07-23T23:44:30;16.50;99.90
53782;DHT22;39692;53.114;7.060;2022-07-23T23:46:56;16.50;99.90
53782;DHT22;39692;53.114;7.060;2022-07-23T23:49:22;16.60;99.90
53782;DHT22;39692;53.114;7.060;2022-07-23T23:51:47;16.60;99.90
53782;DHT22;39692;53.114;7.060;2022-07-23T23:54:14;16.60;99.90
53782;DHT22;39692;53.114;7.060;2022-07-23T23:56:40;16.60;99.90
53782;DHT22;39692;53.114;7.060;2022-07-23T23:59:06;16.60;99.90
